createdAt,value
2022-12-17T00:00:02.298Z,97056.97
2022-12-17T00:02:49.248Z,97060.78
2022-12-17T00:05:36.391Z,97062.03
2022-12-17T00:08:25.817Z,97064.16
2022-12-17T00:11:13.251Z,97066.13
2022-12-17T00:14:00.390Z,97073.34
2022-12-17T00:16:46.991Z,97071.06
2022-12-17T00:19:33.995Z,97075.72
2022-12-17T00:22:21.005Z,97073.78
2022-12-17T00:25:09.510Z,97072.63
2022-12-17T00:27:57.136Z,97083.91
2022-12-17T00:30:44.815Z,97088.97
2022-12-17T00:33:32.884Z,97086.63
2022-12-17T00:36:20.380Z,97086.50
2022-12-17T00:39:07.207Z,97094.91
2022-12-17T00:41:55.725Z,97088.34
2022-12-17T00:44:43.348Z,97084.16
2022-12-17T00:47:34.166Z,97088.53
2022-12-17T00:50:23.655Z,97083.72
2022-12-17T00:53:11.895Z,97089.91
2022-12-17T00:55:58.759Z,97087.34
2022-12-17T00:58:47.625Z,97091.31
2022-12-17T01:01:34.691Z,97092.03
2022-12-17T01:04:22.237Z,97095.69
2022-12-17T01:07:10.491Z,97091.81
2022-12-17T01:09:57.957Z,97099.56
2022-12-17T01:12:44.792Z,97088.25
2022-12-17T01:15:33.560Z,97100.16
2022-12-17T01:18:20.625Z,97100.38
2022-12-17T01:21:07.775Z,97108.84
2022-12-17T01:23:54.592Z,97106.13
2022-12-17T01:26:43.405Z,97108.03
2022-12-17T01:29:30.276Z,97107.81
2022-12-17T01:32:18.981Z,97105.97
2022-12-17T01:35:05.085Z,97113.81
2022-12-17T01:37:52.090Z,97126.47
2022-12-17T01:40:38.170Z,97150.75
2022-12-17T01:43:28.391Z,97154.44
2022-12-17T01:46:15.980Z,97149.22
2022-12-17T01:49:07.336Z,97153.03
2022-12-17T01:51:55.826Z,97163.22
2022-12-17T01:54:43.061Z,97160.00
2022-12-17T01:57:30.406Z,97153.31
2022-12-17T02:00:19.991Z,97165.50
2022-12-17T02:03:07.168Z,97169.03
2022-12-17T02:06:03.955Z,97177.47
2022-12-17T02:08:56.953Z,97196.91
2022-12-17T02:11:50.471Z,97204.03
2022-12-17T02:14:44.394Z,97209.25
2022-12-17T02:17:34.230Z,97206.19
2022-12-17T02:20:31.950Z,97217.28
2022-12-17T02:23:29.489Z,97213.97
2022-12-17T02:26:25.832Z,97226.50
2022-12-17T02:29:16.727Z,97226.13
2022-12-17T02:32:04.734Z,97222.88
2022-12-17T02:35:01.255Z,97226.81
2022-12-17T02:37:48.326Z,97234.44
2022-12-17T02:40:36.445Z,97235.06
2022-12-17T02:43:26.440Z,97230.19
2022-12-17T02:46:15.573Z,97238.16
2022-12-17T02:49:02.821Z,97234.31
2022-12-17T02:51:50.424Z,97243.28
2022-12-17T02:54:37.794Z,97242.97
2022-12-17T02:57:25.010Z,97247.91
2022-12-17T03:00:12.755Z,97257.00
2022-12-17T03:03:00.920Z,97268.28
2022-12-17T03:05:47.870Z,97275.81
2022-12-17T03:08:34.611Z,97279.19
2022-12-17T03:11:21.391Z,97283.53
2022-12-17T03:14:08.263Z,97280.28
2022-12-17T03:16:55.406Z,97283.72
2022-12-17T03:19:47.220Z,97293.78
2022-12-17T03:22:34.391Z,97302.28
2022-12-17T03:25:21.925Z,97304.50
2022-12-17T03:28:09.226Z,97304.69
2022-12-17T03:30:56.301Z,97308.75
2022-12-17T03:33:44.118Z,97310.44
2022-12-17T03:36:33.075Z,97324.06
2022-12-17T03:39:20.120Z,97327.47
2022-12-17T03:42:07.365Z,97331.03
2022-12-17T03:44:54.670Z,97331.03
2022-12-17T03:47:41.503Z,97330.25
2022-12-17T03:50:29.286Z,97329.22
2022-12-17T03:53:20.399Z,97332.56
2022-12-17T03:56:07.315Z,97327.38
2022-12-17T03:58:54.885Z,97334.81
2022-12-17T04:01:41.707Z,97329.75
2022-12-17T04:04:31.470Z,97335.03
2022-12-17T04:07:18.486Z,97347.94
2022-12-17T04:10:06.710Z,97355.22
2022-12-17T04:12:54.286Z,97352.50
2022-12-17T04:15:42.103Z,97357.31
2022-12-17T04:18:29.685Z,97357.22
2022-12-17T04:21:16.529Z,97356.94
2022-12-17T04:24:03.612Z,97358.00
2022-12-17T04:26:52.167Z,97373.75
2022-12-17T04:29:39.436Z,97377.88
2022-12-17T04:32:29.116Z,97387.97
2022-12-17T04:35:19.451Z,97388.47
2022-12-17T04:38:06.668Z,97396.19
2022-12-17T04:40:53.890Z,97386.31
2022-12-17T04:43:45.415Z,97395.84
2022-12-17T04:46:32.819Z,97397.31
2022-12-17T04:49:19.680Z,97403.19
2022-12-17T04:52:06.332Z,97401.88
2022-12-17T04:54:53.211Z,97398.03
2022-12-17T04:57:40.214Z,97399.03
2022-12-17T05:00:32.411Z,97400.38
2022-12-17T05:03:24.968Z,97408.34
2022-12-17T05:06:12.336Z,97406.00
2022-12-17T05:08:59.462Z,97419.53
2022-12-17T05:11:46.939Z,97428.94
2022-12-17T05:14:34.403Z,97422.84
2022-12-17T05:17:23.088Z,97425.28
2022-12-17T05:20:10.110Z,97441.22
2022-12-17T05:22:57.128Z,97438.41
2022-12-17T05:25:44.706Z,97445.84
2022-12-17T05:28:32.905Z,97439.88
2022-12-17T05:31:20.963Z,97461.16
2022-12-17T05:34:09.424Z,97461.56
2022-12-17T05:36:57.372Z,97458.94
2022-12-17T05:39:44.960Z,97471.97
2022-12-17T05:42:28.474Z,97473.44
2022-12-17T05:45:15.921Z,97482.78
2022-12-17T05:48:03.634Z,97485.69
2022-12-17T05:50:53.552Z,97495.22
2022-12-17T05:53:40.960Z,97502.00
2022-12-17T05:56:29.581Z,97505.78
2022-12-17T05:59:17.791Z,97515.22
2022-12-17T06:02:08.731Z,97511.69
2022-12-17T06:05:01.947Z,97517.53
2022-12-17T06:07:52.392Z,97528.34
2022-12-17T06:10:42.872Z,97511.81
2022-12-17T06:16:37.302Z,97521.91
2022-12-17T06:19:25.407Z,97533.91
2022-12-17T06:22:12.461Z,97542.69
2022-12-17T06:25:05.376Z,97548.25
2022-12-17T06:28:06.318Z,97552.13
2022-12-17T06:30:54.011Z,97558.94
2022-12-17T06:33:40.980Z,97548.00
2022-12-17T06:36:28.965Z,97555.50
2022-12-17T06:39:16.982Z,97558.41
2022-12-17T06:42:06.241Z,97566.03
2022-12-17T06:45:04.731Z,97574.63
2022-12-17T06:47:53.096Z,97582.34
2022-12-17T06:50:40.176Z,97588.53
2022-12-17T06:53:27.490Z,97598.09
2022-12-17T06:56:17.410Z,97600.47
2022-12-17T06:59:05.305Z,97615.63
2022-12-17T07:01:52.546Z,97613.69
2022-12-17T07:04:39.410Z,97614.84
2022-12-17T07:07:26.639Z,97619.94
2022-12-17T07:10:15.405Z,97614.88
2022-12-17T07:13:02.271Z,97629.66
2022-12-17T07:16:09.763Z,97633.63
2022-12-17T07:18:58.220Z,97646.44
2022-12-17T07:21:45.620Z,97646.91
2022-12-17T07:24:34.766Z,97642.94
2022-12-17T07:27:21.716Z,97651.47
2022-12-17T07:30:08.598Z,97648.00
2022-12-17T07:32:56.886Z,97658.97
2022-12-17T07:35:43.834Z,97654.38
2022-12-17T07:38:31.891Z,97663.22
2022-12-17T07:41:19.002Z,97665.22
2022-12-17T07:44:05.665Z,97666.88
2022-12-17T07:46:53.331Z,97689.84
2022-12-17T07:49:42.470Z,97697.06
2022-12-17T07:52:33.005Z,97707.66
2022-12-17T07:55:19.888Z,97711.53
2022-12-17T07:58:06.224Z,97710.16
2022-12-17T08:00:53.003Z,97721.66
2022-12-17T08:03:41.526Z,97733.38
2022-12-17T08:06:30.255Z,97734.28
2022-12-17T08:09:17.881Z,97737.97
2022-12-17T08:12:05.405Z,97741.59
2022-12-17T08:14:48.920Z,97736.28
2022-12-17T08:17:38.506Z,97748.75
2022-12-17T08:20:39.425Z,97746.28
2022-12-17T08:23:27.645Z,97743.03
2022-12-17T08:26:14.675Z,97756.53
2022-12-17T08:29:02.115Z,97759.81
2022-12-17T08:31:49.608Z,97771.78
2022-12-17T08:34:37.456Z,97782.94
2022-12-17T08:37:24.616Z,97794.63
2022-12-17T08:40:13.400Z,97801.28
2022-12-17T08:43:00.126Z,97805.44
2022-12-17T08:45:47.690Z,97807.31
2022-12-17T08:48:34.596Z,97805.88
2022-12-17T08:51:23.501Z,97811.13
2022-12-17T08:54:10.713Z,97824.34
2022-12-17T08:56:59.541Z,97842.06
2022-12-17T08:59:46.462Z,97840.94
2022-12-17T09:02:33.593Z,97844.53
2022-12-17T09:05:36.285Z,97839.63
2022-12-17T09:08:25.630Z,97848.63
2022-12-17T09:11:14.631Z,97847.53
2022-12-17T09:14:03.626Z,97870.31
2022-12-17T09:16:50.833Z,97869.03
2022-12-17T09:19:38.105Z,97868.41
2022-12-17T09:22:21.355Z,97887.00
2022-12-17T09:25:08.755Z,97880.19
2022-12-17T09:27:55.830Z,97866.28
2022-12-17T09:30:44.811Z,97872.94
2022-12-17T09:33:35.035Z,97887.19
2022-12-17T09:36:24.265Z,97892.94
2022-12-17T09:39:11.451Z,97898.13
2022-12-17T09:42:06.835Z,97890.66
2022-12-17T09:45:01.110Z,97879.25
2022-12-17T09:47:57.280Z,97886.88
2022-12-17T09:50:44.536Z,97884.47
2022-12-17T09:53:41.024Z,97885.41
2022-12-17T09:56:31.955Z,97898.44
2022-12-17T09:59:19.150Z,97893.72
2022-12-17T10:02:06.721Z,97888.00
2022-12-17T10:04:58.866Z,97901.81
2022-12-17T10:07:50.622Z,97907.81
2022-12-17T10:10:42.910Z,97906.50
2022-12-17T10:13:32.302Z,97916.97
2022-12-17T10:16:19.456Z,97921.81
2022-12-17T10:19:21.291Z,97928.56
2022-12-17T10:22:10.475Z,97924.41
2022-12-17T10:25:03.852Z,97948.19
2022-12-17T10:27:51.151Z,97937.41
2022-12-17T10:30:39.142Z,97946.47
2022-12-17T10:33:26.609Z,97947.94
2022-12-17T10:36:13.662Z,97943.56
2022-12-17T10:39:03.585Z,97938.16
2022-12-17T10:41:54.095Z,97945.25
2022-12-17T10:44:44.272Z,97946.34
2022-12-17T10:47:32.992Z,97942.25
2022-12-17T10:50:23.764Z,97946.97
2022-12-17T10:53:11.694Z,97946.63
2022-12-17T10:56:10.931Z,97949.97
2022-12-17T10:59:12.421Z,97948.38
2022-12-17T11:01:59.632Z,97952.13
2022-12-17T11:04:49.079Z,97950.72
2022-12-17T11:07:42.464Z,97953.00
2022-12-17T11:10:34.740Z,97958.09
2022-12-17T11:13:42.286Z,97956.75
2022-12-17T11:16:38.070Z,97962.34
2022-12-17T11:19:47.265Z,97970.25
2022-12-17T11:22:45.222Z,97971.72
2022-12-17T11:25:45.724Z,97975.66
2022-12-17T11:28:39.711Z,97978.44
2022-12-17T11:31:46.268Z,97979.41
2022-12-17T11:34:42.770Z,97986.34
2022-12-17T11:37:35.475Z,98003.31
2022-12-17T11:40:35.088Z,97994.75
2022-12-17T11:43:29.200Z,97997.00
2022-12-17T11:46:35.595Z,98006.28
2022-12-17T11:49:31.130Z,97994.16
2022-12-17T11:52:23.836Z,97993.16
2022-12-17T11:55:19.694Z,97997.75
2022-12-17T11:58:10.775Z,97996.78
2022-12-17T12:01:04.968Z,98000.47
2022-12-17T12:04:01.809Z,98003.56
2022-12-17T12:06:59.925Z,98003.97
2022-12-17T12:09:51.426Z,98003.97
2022-12-17T12:12:52.479Z,98008.22
2022-12-17T12:15:44.059Z,98005.25
2022-12-17T12:18:37.936Z,98011.00
2022-12-17T12:21:43.127Z,98014.88
2022-12-17T12:24:42.335Z,98012.25
2022-12-17T12:27:37.814Z,98014.28
2022-12-17T12:30:33.577Z,98015.72
2022-12-17T12:33:30.179Z,98015.16
2022-12-17T12:36:19.611Z,98014.75
2022-12-17T12:39:11.725Z,98018.44
2022-12-17T12:42:06.065Z,98012.81
2022-12-17T12:45:00.254Z,98013.41
2022-12-17T12:47:54.036Z,98016.69
2022-12-17T12:50:45.400Z,98022.19
2022-12-17T12:53:32.731Z,98028.75
2022-12-17T12:56:21.003Z,98022.81
2022-12-17T12:59:08.434Z,98028.19
2022-12-17T13:01:56.608Z,98032.03
2022-12-17T13:04:51.074Z,98048.25
2022-12-17T13:07:27.679Z,98048.16
2022-12-17T13:09:59.183Z,98047.97
2022-12-17T13:12:41.559Z,98048.78
2022-12-17T13:15:32.797Z,98050.53
2022-12-17T13:18:17.790Z,98058.13
2022-12-17T13:21:00.349Z,98067.25
2022-12-17T13:23:33.975Z,98072.88
2022-12-17T13:26:23.915Z,98073.19
2022-12-17T13:29:14.024Z,98085.47
2022-12-17T13:31:54.461Z,98090.13
2022-12-17T13:34:32.745Z,98095.78
2022-12-17T13:37:07.894Z,98103.28
2022-12-17T13:39:43.169Z,98108.63
2022-12-17T13:42:29.023Z,98110.19
2022-12-17T13:45:01.313Z,98115.00
2022-12-17T13:47:33.462Z,98119.84
2022-12-17T13:50:33.447Z,98125.50
2022-12-17T13:52:55.662Z,98127.00
2022-12-17T13:55:29.471Z,98125.91
2022-12-17T13:58:00.861Z,98127.84
2022-12-17T14:00:33.760Z,98133.25
2022-12-17T14:03:12.903Z,98136.16
2022-12-17T14:05:46.366Z,98138.56
2022-12-17T14:08:19.099Z,98140.06
2022-12-17T14:11:13.670Z,98145.81
2022-12-17T14:13:42.944Z,98147.28
2022-12-17T14:16:17.746Z,98162.97
2022-12-17T14:18:49.479Z,98166.88
2022-12-17T14:21:19.553Z,98175.72
2022-12-17T14:23:52.920Z,98180.34
2022-12-17T14:26:22.912Z,98190.56
2022-12-17T14:28:54.635Z,98189.72
2022-12-17T14:31:30.459Z,98192.72
2022-12-17T14:34:07.870Z,98193.25
2022-12-17T14:36:39.516Z,98201.44
2022-12-17T14:39:20.190Z,98204.81
2022-12-17T14:42:07.410Z,98203.09
2022-12-17T14:44:51.501Z,98216.19
2022-12-17T14:47:25.559Z,98219.00
2022-12-17T14:50:02.317Z,98223.72
2022-12-17T14:52:44.168Z,98224.28
2022-12-17T14:55:32.656Z,98237.91
2022-12-17T14:58:21.821Z,98243.38
2022-12-17T15:00:55.878Z,98247.97
2022-12-17T15:03:33.133Z,98247.06
2022-12-17T15:06:05.440Z,98253.44
2022-12-17T15:08:38.081Z,98264.53
2022-12-17T15:11:10.326Z,98260.88
2022-12-17T15:13:40.351Z,98272.00
2022-12-17T15:16:10.978Z,98274.00
2022-12-17T15:18:42.415Z,98280.28
2022-12-17T15:21:14.470Z,98286.59
2022-12-17T15:23:46.010Z,98283.34
2022-12-17T15:26:17.759Z,98288.16
2022-12-17T15:28:47.949Z,98283.75
2022-12-17T15:31:24.484Z,98287.44
2022-12-17T15:33:57.856Z,98294.59
2022-12-17T15:36:28.727Z,98297.78
2022-12-17T15:39:01.801Z,98307.25
2022-12-17T15:41:48.964Z,98300.56
2022-12-17T15:44:19.510Z,98318.00
2022-12-17T15:46:49.914Z,98324.00
2022-12-17T15:49:22.336Z,98322.22
2022-12-17T15:51:52.965Z,98322.81
2022-12-17T15:54:25.850Z,98331.78
2022-12-17T15:56:56.956Z,98335.16
2022-12-17T15:59:26.769Z,98341.28
2022-12-17T16:01:56.919Z,98336.81
2022-12-17T16:04:29.332Z,98341.50
2022-12-17T16:06:59.746Z,98345.22
2022-12-17T16:09:30.230Z,98345.97
2022-12-17T16:12:02.871Z,98359.09
2022-12-17T16:14:33.398Z,98370.72
2022-12-17T16:17:04.270Z,98370.69
2022-12-17T16:19:36.033Z,98370.47
2022-12-17T16:22:06.656Z,98380.06
2022-12-17T16:24:37.609Z,98382.84
2022-12-17T16:27:07.908Z,98379.88
2022-12-17T16:29:40.410Z,98386.66
2022-12-17T16:32:10.439Z,98391.47
2022-12-17T16:34:44.166Z,98399.59
2022-12-17T16:37:16.541Z,98399.63
2022-12-17T16:39:46.354Z,98404.66
2022-12-17T16:42:16.160Z,98399.44
2022-12-17T16:44:46.106Z,98414.16
2022-12-17T16:47:16.503Z,98408.22
2022-12-17T16:49:59.627Z,98410.88
2022-12-17T16:52:30.796Z,98416.38
2022-12-17T16:55:00.271Z,98415.31
2022-12-17T16:57:30.393Z,98416.38
2022-12-17T17:00:00.600Z,98423.19
2022-12-17T17:02:31.085Z,98433.00
2022-12-17T17:05:04.235Z,98430.94
2022-12-17T17:07:34.652Z,98438.72
2022-12-17T17:10:05.107Z,98442.34
2022-12-17T17:12:35.011Z,98442.09
2022-12-17T17:15:04.835Z,98457.41
2022-12-17T17:17:55.703Z,98456.03
2022-12-17T17:20:26.630Z,98468.09
2022-12-17T17:22:57.851Z,98467.50
2022-12-17T17:25:38.801Z,98474.56
2022-12-17T17:28:17.870Z,98482.16
2022-12-17T17:30:47.221Z,98486.50
2022-12-17T17:33:16.929Z,98500.53
2022-12-17T17:35:48.026Z,98494.94
2022-12-17T17:38:18.121Z,98499.81
2022-12-17T17:40:48.051Z,98498.75
2022-12-17T17:43:17.931Z,98498.41
2022-12-17T17:45:48.645Z,98504.31
2022-12-17T17:48:18.745Z,98505.72
2022-12-17T17:51:02.782Z,98518.25
2022-12-17T17:53:32.792Z,98512.56
2022-12-17T17:56:07.186Z,98519.31
2022-12-17T17:58:37.327Z,98521.22
2022-12-17T18:01:11.635Z,98528.16
2022-12-17T18:03:41.935Z,98528.59
2022-12-17T18:06:15.115Z,98531.66
2022-12-17T18:08:46.245Z,98529.38
2022-12-17T18:11:22.956Z,98538.81
2022-12-17T18:13:58.278Z,98536.19
2022-12-17T18:16:29.986Z,98547.59
2022-12-17T18:19:01.647Z,98546.97
2022-12-17T18:21:33.425Z,98555.81
2022-12-17T18:24:05.143Z,98562.41
2022-12-17T18:26:43.185Z,98565.16
2022-12-17T18:29:15.156Z,98560.09
2022-12-17T18:31:51.338Z,98568.31
2022-12-17T18:34:23.907Z,98567.63
2022-12-17T18:36:55.167Z,98571.78
2022-12-17T18:39:26.335Z,98573.94
2022-12-17T18:42:13.801Z,98575.53
2022-12-17T18:44:46.169Z,98574.56
2022-12-17T18:47:15.754Z,98592.19
2022-12-17T18:49:45.578Z,98593.63
2022-12-17T18:52:18.297Z,98599.25
2022-12-17T18:54:48.232Z,98597.97
2022-12-17T18:57:18.809Z,98607.22
2022-12-17T18:59:48.510Z,98599.09
2022-12-17T19:02:19.423Z,98610.78
2022-12-17T19:04:49.220Z,98607.31
2022-12-17T19:07:20.332Z,98608.69
2022-12-17T19:09:50.056Z,98621.19
2022-12-17T19:12:20.717Z,98617.97
2022-12-17T19:14:53.222Z,98619.56
2022-12-17T19:17:23.706Z,98626.34
2022-12-17T19:19:57.805Z,98625.81
2022-12-17T19:22:30.367Z,98639.50
2022-12-17T19:25:00.019Z,98641.16
2022-12-17T19:27:30.228Z,98645.59
2022-12-17T19:30:00.466Z,98654.97
2022-12-17T19:32:30.751Z,98648.78
2022-12-17T19:35:00.308Z,98643.84
2022-12-17T19:37:32.321Z,98640.28
2022-12-17T19:40:03.566Z,98641.59
2022-12-17T19:42:37.289Z,98655.41
2022-12-17T19:45:11.551Z,98656.47
2022-12-17T19:47:42.152Z,98651.72
2022-12-17T19:50:12.363Z,98661.16
2022-12-17T19:52:44.621Z,98663.88
2022-12-17T19:55:14.529Z,98661.28
2022-12-17T19:57:49.053Z,98670.09
2022-12-17T20:00:20.019Z,98679.22
2022-12-17T20:02:50.396Z,98672.72
2022-12-17T20:05:21.296Z,98668.25
2022-12-17T20:07:52.996Z,98670.13
2022-12-17T20:10:22.540Z,98668.41
2022-12-17T20:12:52.845Z,98674.69
2022-12-17T20:15:22.436Z,98680.34
2022-12-17T20:17:52.230Z,98686.19
2022-12-17T20:20:21.895Z,98696.88
2022-12-17T20:22:53.273Z,98699.09
2022-12-17T20:25:23.346Z,98693.03
2022-12-17T20:27:53.935Z,98697.38
2022-12-17T20:30:23.970Z,98706.03
2022-12-17T20:32:55.040Z,98709.00
2022-12-17T20:35:24.630Z,98704.13
2022-12-17T20:37:56.066Z,98711.25
2022-12-17T20:40:25.867Z,98719.28
2022-12-17T20:42:56.155Z,98717.22
2022-12-17T20:45:26.040Z,98726.19
2022-12-17T20:47:56.856Z,98734.28
2022-12-17T20:50:28.102Z,98732.94
2022-12-17T20:53:00.266Z,98727.16
2022-12-17T20:55:32.336Z,98735.13
2022-12-17T20:58:03.015Z,98726.97
2022-12-17T21:00:33.715Z,98734.97
2022-12-17T21:03:04.025Z,98738.44
2022-12-17T21:05:33.630Z,98742.88
2022-12-17T21:08:04.935Z,98737.78
2022-12-17T21:10:35.068Z,98748.78
2022-12-17T21:13:22.505Z,98747.78
2022-12-17T21:15:53.333Z,98746.84
2022-12-17T21:18:23.551Z,98750.44
2022-12-17T21:20:58.016Z,98761.25
2022-12-17T21:23:30.602Z,98754.41
2022-12-17T21:26:02.313Z,98761.53
2022-12-17T21:28:34.416Z,98756.28
2022-12-17T21:31:06.152Z,98758.63
2022-12-17T21:33:35.760Z,98765.19
2022-12-17T21:36:08.199Z,98765.63
2022-12-17T21:38:40.124Z,98779.53
2022-12-17T21:41:13.030Z,98769.13
2022-12-17T21:43:43.139Z,98776.03
2022-12-17T21:46:14.823Z,98782.44
2022-12-17T21:48:45.233Z,98776.19
2022-12-17T21:51:16.836Z,98781.16
2022-12-17T21:53:49.201Z,98784.81
2022-12-17T21:56:20.814Z,98795.09
2022-12-17T21:58:52.137Z,98797.28
2022-12-17T22:01:25.600Z,98809.88
2022-12-17T22:03:58.275Z,98813.78
2022-12-17T22:06:33.518Z,98808.38
2022-12-17T22:09:22.738Z,98808.91
2022-12-17T22:12:17.132Z,98806.75
2022-12-17T22:14:49.372Z,98811.63
2022-12-17T22:17:19.460Z,98814.13
2022-12-17T22:19:49.273Z,98816.25
2022-12-17T22:22:20.437Z,98817.72
2022-12-17T22:24:56.008Z,98812.53
2022-12-17T22:27:26.330Z,98816.31
2022-12-17T22:30:14.856Z,98823.75
2022-12-17T22:33:11.657Z,98823.50
2022-12-17T22:38:59.849Z,98829.69
2022-12-17T22:42:43.738Z,98821.81
2022-12-17T22:44:36.510Z,98827.59
2022-12-17T22:44:53.462Z,98825.44
2022-12-17T22:47:24.830Z,98832.00
2022-12-17T22:49:56.686Z,98830.47
2022-12-17T22:52:27.429Z,98827.59
2022-12-17T22:54:57.810Z,98832.56
2022-12-17T22:57:36.204Z,98831.34
2022-12-17T23:00:11.680Z,98830.81
2022-12-17T23:02:42.055Z,98839.63
2022-12-17T23:05:12.074Z,98840.00
2022-12-17T23:07:42.065Z,98843.31
2022-12-17T23:10:12.861Z,98840.78
2022-12-17T23:12:54.456Z,98840.63
2022-12-17T23:15:27.420Z,98840.00
2022-12-17T23:17:59.106Z,98840.09
2022-12-17T23:20:30.915Z,98837.38
2022-12-17T23:23:00.965Z,98842.00
2022-12-17T23:25:32.603Z,98839.34
2022-12-17T23:28:04.370Z,98848.69
2022-12-17T23:30:33.972Z,98838.63
2022-12-17T23:33:04.265Z,98842.78
2022-12-17T23:35:33.970Z,98844.94
2022-12-17T23:38:05.585Z,98847.31
2022-12-17T23:40:36.048Z,98853.66
2022-12-17T23:43:07.072Z,98852.84
2022-12-17T23:45:36.730Z,98860.31
2022-12-17T23:48:08.669Z,98858.13
2022-12-17T23:50:39.216Z,98872.22
2022-12-17T23:53:08.626Z,98869.09
2022-12-17T23:55:39.026Z,98866.03
2022-12-17T23:58:12.232Z,98863.53
